UMMS/MSQ METAR and TAF weather

Enter ICAO airport designator
Station Type Date Time Source
UMMS METAR 2019/04/23 00:00 UTC NOAA

UMMS 230000Z 00000MPS CAVOK M00/M03 Q1030 R13/CLRD// NOSIG


Station Type Date Time Source
UMMS Decoded METAR 2019/04/23 00:00 UTC NOAA

Minsk, Belarus (UMMS) 53-56N 027-38E 231M
Apr 22, 2019 - 08:00 PM EDT / 2019.04.23 0000 UTC
Wind: Calm:0
Visibility: greater than 7 mile(s):0
Temperature: 32 F (0 C)
Dew Point: 26 F (-3 C)
Relative Humidity: 80%
Pressure (altimeter): 30.42 in. Hg (1030 hPa)
ob: UMMS 230000Z 00000MPS CAVOK M00/M03 Q1030 R13/CLRD// NOSIG
cycle: 0

Station Type Date Time Source
UMMS TAF 2019/04/22 18:21 UTC NOAA

TAF TAF UMMS 221701Z 2218/2318 14005MPS 9999 SCT030
TEMPO 2221/2305 3000 BR SCT005
BECMG 2305/2306 14005G10MPS
TEMPO 2306/2318 14007G12MPS

Example: see airport list